createdAt,value
2023-03-28T00:01:14.093Z,3.17
2023-03-28T00:03:44.204Z,2.73
2023-03-28T00:06:17.517Z,2.20
2023-03-28T00:08:47.704Z,1.87
2023-03-28T00:11:20.215Z,2.10
2023-03-28T00:13:50.354Z,2.00
2023-03-28T00:16:18.952Z,2.67
2023-03-28T00:18:51.215Z,2.13
2023-03-28T00:21:24.034Z,1.97
2023-03-28T00:23:54.505Z,4.20
2023-03-28T00:26:27.152Z,2.53
2023-03-28T00:28:56.129Z,3.23
2023-03-28T00:31:25.247Z,2.87
2023-03-28T00:33:55.756Z,4.10
2023-03-28T00:36:27.270Z,2.30
2023-03-28T00:38:56.298Z,4.43
2023-03-28T00:41:27.244Z,4.13
2023-03-28T00:43:57.093Z,3.13
2023-03-28T00:46:31.907Z,4.37
2023-03-28T00:49:06.011Z,2.53
2023-03-28T00:51:39.812Z,5.07
2023-03-28T00:54:12.229Z,2.33
2023-03-28T00:56:45.489Z,3.10
2023-03-28T00:59:18.453Z,2.10
2023-03-28T01:01:48.193Z,4.57
2023-03-28T01:04:22.500Z,2.30
2023-03-28T01:06:55.014Z,4.27
2023-03-28T01:09:24.905Z,2.37
2023-03-28T01:11:55.739Z,2.17
2023-03-28T01:14:27.924Z,2.60
2023-03-28T01:16:57.972Z,4.67
2023-03-28T01:19:43.010Z,5.10
2023-03-28T01:22:57.055Z,4.13
2023-03-28T01:25:56.650Z,3.53
2023-03-28T01:28:45.925Z,3.10
2023-03-28T01:31:44.082Z,6.43
2023-03-28T01:34:39.547Z,2.83
2023-03-28T01:37:23.971Z,2.87
2023-03-28T01:40:07.837Z,3.87
2023-03-28T01:42:45.846Z,3.57
2023-03-28T01:45:19.841Z,4.30
2023-03-28T01:47:55.135Z,3.30
2023-03-28T01:50:29.401Z,3.57
2023-03-28T01:53:08.003Z,2.97
2023-03-28T01:55:41.955Z,5.43
2023-03-28T01:58:20.093Z,5.00
2023-03-28T02:00:54.744Z,3.87
2023-03-28T02:03:33.187Z,3.87
2023-03-28T02:06:02.946Z,2.43
2023-03-28T02:08:38.331Z,3.43
2023-03-28T02:11:07.589Z,2.90
2023-03-28T02:13:42.407Z,3.33
2023-03-28T02:16:13.459Z,5.20
2023-03-28T02:18:48.662Z,3.33
2023-03-28T02:21:21.083Z,3.47
2023-03-28T02:23:53.775Z,4.33
2023-03-28T02:26:24.190Z,3.97
2023-03-28T02:28:57.055Z,5.20
2023-03-28T02:31:26.551Z,4.57
2023-03-28T02:33:56.169Z,5.97
2023-03-28T02:36:48.393Z,6.80
2023-03-28T02:39:51.510Z,7.47
2023-03-28T02:42:49.328Z,3.63
2023-03-28T02:45:33.929Z,4.00
2023-03-28T02:48:13.320Z,3.70
2023-03-28T02:50:49.076Z,3.63
2023-03-28T02:53:27.489Z,4.43
2023-03-28T02:56:02.519Z,4.77
2023-03-28T02:58:37.864Z,6.57
2023-03-28T03:01:07.756Z,6.10
2023-03-28T03:03:37.784Z,8.33
2023-03-28T03:06:08.224Z,5.23
2023-03-28T03:08:37.342Z,6.70
2023-03-28T03:11:07.973Z,4.17
2023-03-28T03:13:36.653Z,5.57
2023-03-28T03:16:06.286Z,7.47
2023-03-28T03:18:35.163Z,4.57
2023-03-28T03:21:03.654Z,5.80
2023-03-28T03:23:32.212Z,7.77
2023-03-28T03:26:01.042Z,4.43
2023-03-28T03:28:31.865Z,4.90
2023-03-28T03:31:00.427Z,5.63
2023-03-28T03:33:30.566Z,4.10
2023-03-28T03:36:01.035Z,6.00
2023-03-28T03:38:29.626Z,5.17
2023-03-28T03:40:58.374Z,6.57
2023-03-28T03:43:28.048Z,5.70
2023-03-28T03:46:00.656Z,6.03
2023-03-28T03:48:29.617Z,3.53
2023-03-28T03:50:58.164Z,4.90
2023-03-28T03:53:26.622Z,3.87
2023-03-28T03:55:55.263Z,3.07
2023-03-28T03:58:23.806Z,4.70
2023-03-28T04:00:53.216Z,3.60
2023-03-28T04:03:25.137Z,2.27
2023-03-28T04:05:58.510Z,3.93
2023-03-28T04:08:27.378Z,2.83
2023-03-28T04:10:55.966Z,5.70
2023-03-28T04:13:24.556Z,3.27
2023-03-28T04:15:53.301Z,3.13
2023-03-28T04:18:23.373Z,1.20
2023-03-28T04:20:55.520Z,4.33
2023-03-28T04:23:26.094Z,1.77
2023-03-28T04:25:56.235Z,2.43
2023-03-28T04:28:27.983Z,1.80
2023-03-28T04:30:59.710Z,4.33
2023-03-28T04:33:34.096Z,1.60
2023-03-28T04:36:03.191Z,4.40
2023-03-28T04:38:36.492Z,2.20
2023-03-28T04:41:08.495Z,3.63
2023-03-28T04:43:37.083Z,8.77
2023-03-28T04:46:05.785Z,1.77
2023-03-28T04:48:35.993Z,1.87
2023-03-28T04:51:04.747Z,1.60
2023-03-28T04:53:33.284Z,2.50
2023-03-28T04:56:02.021Z,2.90
2023-03-28T04:58:31.044Z,1.77
2023-03-28T05:01:03.459Z,4.73
2023-03-28T05:03:32.279Z,1.37
2023-03-28T05:06:02.282Z,1.83
2023-03-28T05:08:33.194Z,1.77
2023-03-28T05:11:01.928Z,1.80
2023-03-28T05:13:30.786Z,1.80
2023-03-28T05:15:59.296Z,3.80
2023-03-28T05:18:28.159Z,1.70
2023-03-28T05:20:56.758Z,2.10
2023-03-28T05:23:26.895Z,2.00
2023-03-28T05:25:56.269Z,2.03
2023-03-28T05:28:25.064Z,2.23
2023-03-28T05:30:53.490Z,1.97
2023-03-28T05:33:22.026Z,4.37
2023-03-28T05:35:50.526Z,5.10
2023-03-28T05:38:19.087Z,1.70
2023-03-28T05:40:49.768Z,1.27
2023-03-28T05:43:18.559Z,2.60
2023-03-28T05:45:48.424Z,1.50
2023-03-28T05:48:17.051Z,1.47
2023-03-28T05:50:46.430Z,1.40
2023-03-28T05:53:15.034Z,2.00
2023-03-28T05:55:43.840Z,2.53
2023-03-28T05:58:14.216Z,1.53
2023-03-28T06:00:45.555Z,2.20
2023-03-28T06:03:17.320Z,3.00
2023-03-28T06:05:46.930Z,1.87
2023-03-28T06:08:17.056Z,1.80
2023-03-28T06:10:45.964Z,1.70
2023-03-28T06:13:16.670Z,1.53
2023-03-28T06:15:48.707Z,2.37
2023-03-28T06:18:17.399Z,1.30
2023-03-28T06:20:46.116Z,2.03
2023-03-28T06:23:14.683Z,1.67
2023-03-28T06:25:47.588Z,2.30
2023-03-28T06:28:21.486Z,2.47
2023-03-28T06:30:51.168Z,2.50
2023-03-28T06:33:19.881Z,2.30
2023-03-28T06:35:48.836Z,1.90
2023-03-28T06:38:17.511Z,2.87
2023-03-28T06:40:46.389Z,1.63
2023-03-28T06:43:16.704Z,1.57
2023-03-28T06:45:45.285Z,3.40
2023-03-28T06:48:13.762Z,1.23
2023-03-28T06:50:42.251Z,1.40
2023-03-28T06:53:10.791Z,1.10
2023-03-28T06:55:48.454Z,1.40
2023-03-28T06:58:18.499Z,3.43
2023-03-28T07:00:47.193Z,1.20
2023-03-28T07:03:16.581Z,2.00
2023-03-28T07:05:45.797Z,2.63
2023-03-28T07:08:15.225Z,1.30
2023-03-28T07:10:44.386Z,2.40
2023-03-28T07:13:14.280Z,1.50
2023-03-28T07:15:44.444Z,1.80
2023-03-28T07:18:12.944Z,1.47
2023-03-28T07:20:43.039Z,1.93
2023-03-28T07:23:14.200Z,1.40
2023-03-28T07:25:42.762Z,2.03
2023-03-28T07:28:11.268Z,1.77
2023-03-28T07:30:39.880Z,1.53
2023-03-28T07:33:17.373Z,1.40
2023-03-28T07:35:48.535Z,1.30
2023-03-28T07:38:17.106Z,1.40
2023-03-28T07:40:45.917Z,1.60
2023-03-28T07:43:14.540Z,1.50
2023-03-28T07:45:43.158Z,1.77
2023-03-28T07:48:13.206Z,4.23
2023-03-28T07:50:42.985Z,1.30
2023-03-28T07:53:11.560Z,2.90
2023-03-28T07:58:12.034Z,2.03
2023-03-28T08:00:41.107Z,3.00
2023-03-28T08:03:10.013Z,1.07
2023-03-28T08:05:40.080Z,1.23
2023-03-28T08:08:09.427Z,1.00
2023-03-28T08:10:38.224Z,1.90
2023-03-28T08:13:06.857Z,1.70
2023-03-28T08:15:35.452Z,1.67
2023-03-28T08:18:04.239Z,1.60
2023-03-28T08:20:32.743Z,1.90
2023-03-28T08:23:04.091Z,1.60
2023-03-28T08:25:32.560Z,2.13
2023-03-28T08:28:11.694Z,1.67
2023-03-28T08:30:40.333Z,2.13
2023-03-28T08:33:09.333Z,1.47
2023-03-28T08:35:39.256Z,3.13
2023-03-28T08:38:11.208Z,1.20
2023-03-28T08:40:48.990Z,1.57
2023-03-28T08:43:57.341Z,1.53
2023-03-28T08:46:29.339Z,3.77
2023-03-28T08:49:01.270Z,1.10
2023-03-28T08:51:36.558Z,1.80
2023-03-28T08:54:13.003Z,1.47
2023-03-28T08:56:46.320Z,1.50
2023-03-28T08:59:17.125Z,2.27
2023-03-28T09:01:47.465Z,2.97
2023-03-28T09:04:28.116Z,2.83
2023-03-28T09:07:03.368Z,1.90
2023-03-28T09:09:43.912Z,1.70
2023-03-28T09:12:31.094Z,1.43
2023-03-28T09:15:17.278Z,1.57
2023-03-28T09:17:57.333Z,1.10
2023-03-28T09:20:35.282Z,4.50
2023-03-28T09:23:26.182Z,1.97
2023-03-28T09:26:03.068Z,4.33
2023-03-28T09:28:40.136Z,1.00
2023-03-28T09:31:13.719Z,1.13
2023-03-28T09:33:45.490Z,1.10
2023-03-28T09:36:16.874Z,1.00
2023-03-28T09:38:49.308Z,1.40
2023-03-28T09:41:24.274Z,2.13
2023-03-28T09:43:59.060Z,1.20
2023-03-28T09:46:32.994Z,3.60
2023-03-28T09:49:01.575Z,1.70
2023-03-28T09:51:31.510Z,3.07
2023-03-28T09:54:00.217Z,1.37
2023-03-28T09:56:35.575Z,2.00
2023-03-28T09:59:06.226Z,2.30
2023-03-28T10:01:40.634Z,3.97
2023-03-28T10:04:14.257Z,3.43
2023-03-28T10:06:43.936Z,1.47
2023-03-28T10:09:48.890Z,1.67
2023-03-28T10:12:23.980Z,2.60
2023-03-28T10:14:52.419Z,3.33
2023-03-28T10:17:25.978Z,1.37
2023-03-28T10:20:00.267Z,3.10
2023-03-28T10:22:32.009Z,2.97
2023-03-28T10:25:01.247Z,4.07
2023-03-28T10:27:33.204Z,2.53
2023-03-28T10:30:13.925Z,2.13
2023-03-28T10:32:43.330Z,1.60
2023-03-28T10:35:26.219Z,1.97
2023-03-28T10:37:57.384Z,1.40
2023-03-28T10:40:31.959Z,1.37
2023-03-28T10:43:01.834Z,3.10
2023-03-28T10:45:36.639Z,1.70
2023-03-28T10:48:13.085Z,1.90
2023-03-28T10:50:46.035Z,0.90
2023-03-28T10:53:37.579Z,1.00
2023-03-28T10:56:19.945Z,2.03
2023-03-28T10:58:58.729Z,1.20
2023-03-28T11:01:36.524Z,2.30
2023-03-28T11:04:18.192Z,0.97
2023-03-28T11:06:53.969Z,2.00
2023-03-28T11:09:30.146Z,1.07
2023-03-28T11:12:08.260Z,1.83
2023-03-28T11:14:52.866Z,2.30
2023-03-28T11:17:30.503Z,1.17
2023-03-28T11:20:24.970Z,0.87
2023-03-28T11:23:06.427Z,1.67
2023-03-28T11:25:45.065Z,1.70
2023-03-28T11:28:25.108Z,4.63
2023-03-28T11:30:58.818Z,1.93
2023-03-28T11:33:33.734Z,2.17
2023-03-28T11:36:09.286Z,1.10
2023-03-28T11:38:41.566Z,3.40
2023-03-28T11:41:15.379Z,1.70
2023-03-28T11:43:49.405Z,2.23
2023-03-28T11:46:26.201Z,3.93
2023-03-28T11:48:59.359Z,4.37
2023-03-28T11:51:34.086Z,3.43
2023-03-28T11:54:06.475Z,1.50
2023-03-28T11:56:50.329Z,1.57
2023-03-28T11:59:25.241Z,1.77
2023-03-28T12:02:09.137Z,3.97
2023-03-28T12:04:46.655Z,2.13
2023-03-28T12:07:23.238Z,1.10
2023-03-28T12:10:03.481Z,1.33
2023-03-28T12:12:36.483Z,1.20
2023-03-28T12:15:08.573Z,1.57
2023-03-28T12:17:43.720Z,1.47
2023-03-28T12:20:19.538Z,1.37
2023-03-28T12:22:55.605Z,1.00
2023-03-28T12:25:32.389Z,2.93
2023-03-28T12:28:10.478Z,4.70
2023-03-28T12:30:45.640Z,1.07
2023-03-28T12:33:25.367Z,1.03
2023-03-28T12:36:01.562Z,1.10
2023-03-28T12:38:35.581Z,1.40
2023-03-28T12:41:06.375Z,2.30
2023-03-28T12:43:44.815Z,0.90
2023-03-28T12:46:15.530Z,1.80
2023-03-28T12:48:52.531Z,1.73
2023-03-28T12:51:27.941Z,1.47
2023-03-28T12:54:08.611Z,3.53
2023-03-28T12:56:37.704Z,4.73
2023-03-28T12:59:46.153Z,1.17
2023-03-28T13:02:17.972Z,2.10
2023-03-28T13:04:57.030Z,1.40
2023-03-28T13:07:30.515Z,2.30
2023-03-28T13:10:10.234Z,1.57
2023-03-28T13:12:49.606Z,1.10
2023-03-28T13:15:31.269Z,2.07
2023-03-28T13:18:30.154Z,2.30
2023-03-28T13:21:01.547Z,2.03
2023-03-28T13:23:33.789Z,2.27
2023-03-28T13:26:03.911Z,1.20
2023-03-28T13:28:43.534Z,1.73
2023-03-28T13:31:21.390Z,1.83
2023-03-28T13:33:53.405Z,2.10
2023-03-28T13:36:29.370Z,1.73
2023-03-28T13:39:25.524Z,3.30
2023-03-28T13:42:01.849Z,1.33
2023-03-28T13:44:41.096Z,1.27
2023-03-28T13:47:16.668Z,1.93
2023-03-28T13:49:49.537Z,1.70
2023-03-28T13:52:21.995Z,2.07
2023-03-28T13:54:54.604Z,1.50
2023-03-28T13:57:26.358Z,2.50
2023-03-28T13:59:58.767Z,1.43
2023-03-28T14:02:38.859Z,1.23
2023-03-28T14:05:16.544Z,1.50
2023-03-28T14:07:46.576Z,1.17
2023-03-28T14:10:40.849Z,3.37
2023-03-28T14:13:14.247Z,1.57
2023-03-28T14:15:44.522Z,1.30
2023-03-28T14:18:19.098Z,2.00
2023-03-28T14:20:48.334Z,1.80
2023-03-28T14:23:34.078Z,1.63
2023-03-28T14:26:04.000Z,2.47
2023-03-28T14:28:33.681Z,2.53
2023-03-28T14:31:02.603Z,2.00
2023-03-28T14:33:37.526Z,1.60
2023-03-28T14:36:07.233Z,2.63
2023-03-28T14:38:39.948Z,1.97
2023-03-28T14:41:14.482Z,2.17
2023-03-28T14:43:43.142Z,1.83
2023-03-28T14:46:12.698Z,6.57
2023-03-28T14:48:44.957Z,1.80
2023-03-28T14:51:16.592Z,1.40
2023-03-28T14:53:48.863Z,1.93
2023-03-28T14:56:23.915Z,1.20
2023-03-28T14:58:56.497Z,2.57
2023-03-28T15:01:26.077Z,1.30
2023-03-28T15:04:00.049Z,1.27
2023-03-28T15:06:29.607Z,1.60
2023-03-28T15:09:04.447Z,2.83
2023-03-28T15:11:38.838Z,3.83
2023-03-28T15:14:16.392Z,4.80
2023-03-28T15:16:47.477Z,1.50
2023-03-28T15:19:23.437Z,10.27
2023-03-28T15:21:56.677Z,73.07
2023-03-28T15:24:29.106Z,27.27
2023-03-28T15:27:01.854Z,1.37
2023-03-28T15:29:37.399Z,13.23
2023-03-28T15:32:08.017Z,5.67
2023-03-28T15:34:46.277Z,16.40
2023-03-28T15:37:21.673Z,6.13
2023-03-28T15:40:13.643Z,4.67
2023-03-28T15:42:42.557Z,5.70
2023-03-28T15:45:23.247Z,5.60
2023-03-28T15:47:54.739Z,5.27
2023-03-28T15:50:28.496Z,1.90
2023-03-28T15:53:02.503Z,5.50
2023-03-28T15:55:33.053Z,6.63
2023-03-28T15:58:01.634Z,4.63
2023-03-28T16:00:39.608Z,8.27
2023-03-28T16:03:32.955Z,2.30
2023-03-28T16:06:31.500Z,2.87
2023-03-28T16:09:16.043Z,3.17
2023-03-28T16:11:46.664Z,2.43
2023-03-28T16:14:21.044Z,2.23
2023-03-28T16:16:54.736Z,3.60
2023-03-28T16:19:26.153Z,1.63
2023-03-28T16:21:55.260Z,1.43
2023-03-28T16:24:33.258Z,3.43
2023-03-28T16:27:03.509Z,2.43
2023-03-28T16:29:31.993Z,3.97
2023-03-28T16:32:00.876Z,2.53
2023-03-28T16:34:29.530Z,2.57
2023-03-28T16:36:58.355Z,1.50
2023-03-28T16:39:27.223Z,2.70
2023-03-28T16:41:55.718Z,2.87
2023-03-28T16:44:25.957Z,2.27
2023-03-28T16:46:55.262Z,3.27
2023-03-28T16:49:24.243Z,1.10
2023-03-28T16:51:55.525Z,1.20
2023-03-28T16:54:25.966Z,2.47
2023-03-28T16:56:56.033Z,1.30
2023-03-28T16:59:28.219Z,1.43
2023-03-28T17:01:58.054Z,3.00
2023-03-28T17:04:30.228Z,2.63
2023-03-28T17:06:59.507Z,3.17
2023-03-28T17:09:28.136Z,2.27
2023-03-28T17:11:56.994Z,3.90
2023-03-28T17:14:31.734Z,4.10
2023-03-28T17:17:00.912Z,3.07
2023-03-28T17:19:29.674Z,3.50
2023-03-28T17:21:58.244Z,3.53
2023-03-28T17:24:26.926Z,2.83
2023-03-28T17:26:55.724Z,3.37
2023-03-28T17:29:27.884Z,2.67
2023-03-28T17:31:58.519Z,3.90
2023-03-28T17:34:27.540Z,3.50
2023-03-28T17:36:56.215Z,3.70
2023-03-28T17:39:24.881Z,3.20
2023-03-28T17:41:53.758Z,4.57
2023-03-28T17:44:22.387Z,3.37
2023-03-28T17:46:51.271Z,3.23
2023-03-28T17:49:22.944Z,2.27
2023-03-28T17:51:52.840Z,6.97
2023-03-28T17:54:22.792Z,2.83
2023-03-28T17:56:51.396Z,5.90
2023-03-28T17:59:20.158Z,4.13
2023-03-28T18:01:49.211Z,3.17
2023-03-28T18:04:18.002Z,5.00
2023-03-28T18:06:48.695Z,4.00
2023-03-28T18:09:17.489Z,4.80
2023-03-28T18:11:49.394Z,3.90
2023-03-28T18:14:18.973Z,4.13
2023-03-28T18:16:48.070Z,4.40
2023-03-28T18:19:19.112Z,5.77
2023-03-28T18:21:49.846Z,5.60
2023-03-28T18:24:20.746Z,5.27
2023-03-28T18:26:49.789Z,3.37
2023-03-28T18:29:18.789Z,5.17
2023-03-28T18:31:47.576Z,3.03
2023-03-28T18:34:16.385Z,4.53
2023-03-28T18:36:45.767Z,4.17
2023-03-28T18:39:16.423Z,3.93
2023-03-28T18:41:46.659Z,4.67
2023-03-28T18:44:15.633Z,2.73
2023-03-28T18:46:54.970Z,6.50
2023-03-28T18:49:27.357Z,3.23
2023-03-28T18:52:04.361Z,3.80
2023-03-28T18:54:36.097Z,4.57
2023-03-28T18:57:05.554Z,2.93
2023-03-28T18:59:34.420Z,3.33
2023-03-28T19:02:03.062Z,2.43
2023-03-28T19:04:33.543Z,2.63
2023-03-28T19:07:02.540Z,3.40
2023-03-28T19:09:31.579Z,3.27
2023-03-28T19:12:02.090Z,3.33
2023-03-28T19:14:31.777Z,5.03
2023-03-28T19:17:00.848Z,3.60
2023-03-28T19:19:37.777Z,4.67
2023-03-28T19:22:07.680Z,3.80
2023-03-28T19:24:39.028Z,4.27
2023-03-28T19:27:09.342Z,3.93
2023-03-28T19:29:38.321Z,3.03
2023-03-28T19:32:06.874Z,215.20
2023-03-28T19:34:35.804Z,358.33
2023-03-28T19:37:04.590Z,294.23
2023-03-28T19:39:34.789Z,579.97
2023-03-28T19:42:03.937Z,247.07
2023-03-28T19:44:34.584Z,18.17
2023-03-28T19:47:03.340Z,9.03
2023-03-28T19:49:32.065Z,8.77
2023-03-28T19:52:01.278Z,8.53
2023-03-28T19:54:29.880Z,258.27
2023-03-28T19:56:59.140Z,364.47
2023-03-28T19:59:27.836Z,228.40
2023-03-28T20:02:00.141Z,272.03
2023-03-28T20:04:29.866Z,484.47
2023-03-28T20:06:59.857Z,74.93
2023-03-28T20:09:28.705Z,9.13
2023-03-28T20:11:57.365Z,6.10
2023-03-28T20:14:29.630Z,13.00
2023-03-28T20:16:59.626Z,12.70
2023-03-28T20:19:29.171Z,18.63
2023-03-28T20:21:58.004Z,13.13
2023-03-28T20:24:26.874Z,13.17
2023-03-28T20:26:55.684Z,267.13
2023-03-28T20:29:27.372Z,399.03
2023-03-28T20:31:56.485Z,512.13
2023-03-28T20:34:26.699Z,282.27
2023-03-28T20:36:56.780Z,119.80
2023-03-28T20:39:28.148Z,41.07
2023-03-28T20:41:56.766Z,14.17
2023-03-28T20:44:25.470Z,16.93
2023-03-28T20:46:54.400Z,17.17
2023-03-28T20:49:23.275Z,14.20
2023-03-28T20:51:53.428Z,13.47
2023-03-28T20:54:28.255Z,7.70
2023-03-28T20:56:58.082Z,8.20
2023-03-28T20:59:27.434Z,13.40
2023-03-28T21:01:56.115Z,13.00
2023-03-28T21:04:25.179Z,11.87
2023-03-28T21:06:55.550Z,12.07
2023-03-28T21:09:24.367Z,15.27
2023-03-28T21:11:53.156Z,405.60
2023-03-28T21:14:21.944Z,220.63
2023-03-28T21:16:52.125Z,750.00
2023-03-28T21:19:21.031Z,186.67
2023-03-28T21:21:49.647Z,283.23
2023-03-28T21:24:21.483Z,195.90
2023-03-28T21:26:50.073Z,46.20
2023-03-28T21:29:18.650Z,28.30
2023-03-28T21:31:47.403Z,22.43
2023-03-28T21:34:16.078Z,19.40
2023-03-28T21:36:44.526Z,23.13
2023-03-28T21:39:13.588Z,25.67
2023-03-28T21:41:43.544Z,24.30
2023-03-28T21:44:12.137Z,22.00
2023-03-28T21:46:40.975Z,26.73
2023-03-28T21:49:09.567Z,27.97
2023-03-28T21:51:38.200Z,27.13
2023-03-28T21:54:07.010Z,29.17
2023-03-28T21:56:35.898Z,29.07
2023-03-28T21:59:05.961Z,24.30
2023-03-28T22:01:37.234Z,24.00
2023-03-28T22:04:05.956Z,28.90
2023-03-28T22:06:34.528Z,31.20
2023-03-28T22:09:03.039Z,28.93
2023-03-28T22:11:32.985Z,27.17
2023-03-28T22:14:05.632Z,26.40
2023-03-28T22:16:37.757Z,29.97
2023-03-28T22:19:06.769Z,30.33
2023-03-28T22:21:35.385Z,27.93
2023-03-28T22:24:06.497Z,25.27
2023-03-28T22:26:36.203Z,29.20
2023-03-28T22:29:05.360Z,31.40
2023-03-28T22:31:35.663Z,29.97
2023-03-28T22:34:04.421Z,25.53
2023-03-28T22:36:33.004Z,27.13
2023-03-28T22:39:01.493Z,25.23
2023-03-28T22:41:32.040Z,26.87
2023-03-28T22:44:00.921Z,27.67
2023-03-28T22:46:30.288Z,29.47
2023-03-28T22:49:00.319Z,26.13
2023-03-28T22:51:30.125Z,30.03
2023-03-28T22:54:02.069Z,30.23
2023-03-28T22:56:30.919Z,28.10
2023-03-28T22:59:01.549Z,29.07
2023-03-28T23:01:30.398Z,23.77
2023-03-28T23:04:00.841Z,25.73
2023-03-28T23:06:29.384Z,22.83
2023-03-28T23:08:58.860Z,29.77
2023-03-28T23:11:27.765Z,27.33
2023-03-28T23:13:56.734Z,23.07
2023-03-28T23:16:25.422Z,27.27
2023-03-28T23:18:53.971Z,25.50
2023-03-28T23:21:24.697Z,25.67
2023-03-28T23:23:54.086Z,24.80
2023-03-28T23:26:22.799Z,28.70
2023-03-28T23:28:51.641Z,26.23
2023-03-28T23:31:20.089Z,29.40
2023-03-28T23:33:48.766Z,29.63
2023-03-28T23:36:20.947Z,26.53
2023-03-28T23:38:51.315Z,27.07
2023-03-28T23:41:19.788Z,28.23
2023-03-28T23:43:48.314Z,24.77
2023-03-28T23:46:17.216Z,24.03
2023-03-28T23:48:46.291Z,30.43
2023-03-28T23:51:14.867Z,24.57
2023-03-28T23:53:43.453Z,22.83
2023-03-28T23:56:13.660Z,24.53
2023-03-28T23:58:42.166Z,19.20
